createdAt,value
2019-03-24T00:00:01.967Z,43.23
2019-03-24T00:02:30.474Z,43.53
2019-03-24T00:05:18.272Z,41.10
2019-03-24T00:08:06.067Z,38.03
2019-03-24T00:10:34.486Z,31.73
2019-03-24T00:13:22.332Z,33.00
2019-03-24T00:16:10.088Z,38.07
2019-03-24T00:18:57.951Z,37.50
2019-03-24T00:21:45.965Z,38.10
2019-03-24T00:24:33.828Z,34.57
2019-03-24T00:27:21.621Z,44.80
2019-03-24T00:30:10.902Z,43.40
2019-03-24T00:32:58.684Z,41.67
2019-03-24T00:35:46.443Z,44.10
2019-03-24T00:38:34.237Z,46.77
2019-03-24T00:41:14.612Z,42.23
2019-03-24T00:43:55.646Z,37.67
2019-03-24T00:46:36.439Z,43.83
2019-03-24T00:49:17.097Z,46.63
2019-03-24T00:51:58.055Z,46.40
2019-03-24T00:54:39.097Z,46.43
2019-03-24T00:57:19.929Z,45.40
2019-03-24T01:00:00.740Z,51.23
2019-03-24T01:02:41.616Z,39.80
2019-03-24T01:05:22.411Z,38.90
2019-03-24T01:11:15.340Z,43.27
2019-03-24T01:13:56.107Z,44.23
2019-03-24T01:16:37.179Z,44.10
2019-03-24T01:19:17.927Z,39.23
2019-03-24T01:21:58.644Z,37.90
2019-03-24T01:24:39.564Z,40.77
2019-03-24T01:27:20.235Z,43.00
2019-03-24T01:30:00.827Z,33.23
2019-03-24T01:32:41.447Z,34.47
2019-03-24T01:35:22.287Z,43.53
2019-03-24T01:37:50.738Z,37.30
2019-03-24T01:40:38.837Z,45.90
2019-03-24T01:43:26.602Z,35.37
2019-03-24T01:46:14.371Z,39.40
2019-03-24T01:49:02.137Z,40.57
2019-03-24T01:51:49.895Z,37.00
2019-03-24T01:54:37.697Z,49.70
2019-03-24T01:57:25.466Z,42.23
2019-03-24T02:00:13.324Z,37.70
2019-03-24T02:03:01.108Z,38.00
2019-03-24T02:05:48.892Z,40.37
2019-03-24T02:08:36.750Z,38.17
2019-03-24T02:11:24.530Z,41.47
2019-03-24T02:14:12.278Z,36.13
2019-03-24T02:17:00.127Z,45.57
2019-03-24T02:19:47.907Z,32.53
2019-03-24T02:22:35.723Z,36.40
2019-03-24T02:25:16.204Z,42.57
2019-03-24T02:27:44.629Z,35.90
2019-03-24T02:30:32.651Z,34.23
2019-03-24T02:33:01.135Z,45.70
2019-03-24T02:35:48.929Z,27.80
2019-03-24T02:38:36.803Z,42.70
2019-03-24T02:41:17.892Z,40.90
2019-03-24T02:43:58.813Z,50.43
2019-03-24T02:46:39.752Z,45.63
2019-03-24T02:49:20.531Z,49.33
2019-03-24T02:52:01.454Z,38.00
2019-03-24T02:54:42.219Z,41.30
2019-03-24T02:57:23.117Z,44.90
2019-03-24T03:00:03.800Z,45.10
2019-03-24T03:02:44.585Z,31.57
2019-03-24T03:05:25.159Z,39.03
2019-03-24T03:08:05.804Z,49.73
2019-03-24T03:10:47.054Z,39.97
2019-03-24T03:13:27.568Z,41.93
2019-03-24T03:16:08.353Z,37.77
2019-03-24T03:18:48.983Z,45.80
2019-03-24T03:21:29.804Z,46.03
2019-03-24T03:24:10.632Z,38.07
2019-03-24T03:26:51.252Z,37.73
2019-03-24T03:29:32.351Z,46.23
2019-03-24T03:32:13.139Z,36.43
2019-03-24T03:34:53.568Z,40.30
2019-03-24T03:37:34.197Z,47.53
2019-03-24T03:40:15.183Z,34.73
2019-03-24T03:42:56.154Z,34.47
2019-03-24T03:45:44.113Z,33.37
2019-03-24T03:48:12.592Z,46.00
2019-03-24T03:51:00.376Z,37.43
2019-03-24T03:53:48.124Z,43.73
2019-03-24T03:56:36.189Z,44.63
2019-03-24T03:59:23.957Z,32.27
2019-03-24T04:02:11.733Z,38.00
2019-03-24T04:04:59.511Z,38.17
2019-03-24T04:07:47.264Z,39.30
2019-03-24T04:10:35.067Z,36.47
2019-03-24T04:13:22.916Z,41.57
2019-03-24T04:16:10.767Z,36.50
2019-03-24T04:18:58.525Z,36.23
2019-03-24T04:21:46.295Z,40.87
2019-03-24T04:24:34.431Z,40.40
2019-03-24T04:27:22.192Z,37.07
2019-03-24T04:30:10.141Z,34.00
2019-03-24T04:32:38.563Z,42.80
2019-03-24T04:35:26.341Z,40.40
2019-03-24T04:38:07.263Z,34.00
2019-03-24T04:40:48.066Z,40.90
2019-03-24T04:43:28.917Z,34.80
2019-03-24T04:46:09.150Z,24.23
2019-03-24T04:48:49.909Z,37.50
2019-03-24T04:51:30.563Z,43.33
2019-03-24T04:54:11.096Z,35.77
2019-03-24T04:56:51.783Z,33.10
2019-03-24T04:59:32.626Z,38.77
2019-03-24T05:02:13.459Z,38.33
2019-03-24T05:04:54.450Z,35.23
2019-03-24T05:07:35.116Z,40.27
2019-03-24T05:10:15.785Z,41.97
2019-03-24T05:12:56.358Z,31.63
2019-03-24T05:15:36.948Z,39.00
2019-03-24T05:18:17.892Z,36.30
2019-03-24T05:20:58.904Z,39.37
2019-03-24T05:23:39.593Z,38.83
2019-03-24T05:26:20.260Z,39.13
2019-03-24T05:28:48.694Z,37.30
2019-03-24T05:31:36.460Z,40.90
2019-03-24T05:34:24.218Z,43.37
2019-03-24T05:37:12.007Z,33.40
2019-03-24T05:39:59.786Z,46.20
2019-03-24T05:42:40.043Z,44.87
2019-03-24T05:45:20.705Z,41.33
2019-03-24T05:48:01.523Z,44.17
2019-03-24T05:50:42.565Z,41.03
2019-03-24T05:53:11.244Z,44.07
2019-03-24T05:55:58.997Z,37.43
2019-03-24T05:58:46.765Z,42.97
2019-03-24T06:01:34.542Z,35.47
2019-03-24T06:04:22.307Z,41.03
2019-03-24T06:07:10.078Z,37.20
2019-03-24T06:09:57.842Z,40.37
2019-03-24T06:12:45.626Z,40.13
2019-03-24T06:15:33.367Z,48.03
2019-03-24T06:18:21.159Z,44.27
2019-03-24T06:21:08.911Z,41.10
2019-03-24T06:23:56.690Z,39.10
2019-03-24T06:26:44.475Z,43.40
2019-03-24T06:29:32.263Z,36.33
2019-03-24T06:32:00.987Z,42.03
2019-03-24T06:34:48.734Z,33.93
2019-03-24T06:37:36.526Z,45.77
2019-03-24T06:40:44.983Z,41.17
2019-03-24T06:43:25.144Z,37.43
2019-03-24T06:46:06.112Z,36.00
2019-03-24T06:48:46.798Z,36.57
2019-03-24T06:51:27.619Z,36.37
2019-03-24T06:54:08.218Z,37.97
2019-03-24T06:56:36.627Z,46.77
2019-03-24T06:59:24.407Z,38.33
2019-03-24T07:02:12.459Z,42.60
2019-03-24T07:05:00.377Z,36.33
2019-03-24T07:07:49.723Z,35.40
2019-03-24T07:10:37.499Z,39.47
2019-03-24T07:13:25.275Z,38.53
2019-03-24T07:16:13.026Z,31.20
2019-03-24T07:19:00.811Z,40.23
2019-03-24T07:21:48.575Z,39.50
2019-03-24T07:24:36.326Z,35.27
2019-03-24T07:27:04.759Z,28.23
2019-03-24T07:29:52.543Z,38.80
2019-03-24T07:32:40.307Z,28.43
2019-03-24T07:35:28.287Z,39.60
2019-03-24T07:37:56.694Z,36.77
2019-03-24T07:40:44.475Z,31.47
2019-03-24T07:43:32.242Z,38.53
2019-03-24T07:46:20.019Z,36.80
2019-03-24T07:49:07.770Z,38.70
2019-03-24T07:51:55.542Z,31.33
2019-03-24T07:54:43.311Z,36.50
2019-03-24T07:57:24.295Z,39.70
2019-03-24T08:00:04.866Z,36.17
2019-03-24T08:02:50.996Z,33.03
2019-03-24T08:05:28.426Z,34.93
2019-03-24T08:08:09.338Z,31.10
2019-03-24T08:10:52.618Z,30.53
2019-03-24T08:13:33.499Z,35.50
2019-03-24T08:16:14.496Z,30.87
2019-03-24T08:18:55.246Z,36.80
2019-03-24T08:21:36.107Z,31.33
2019-03-24T08:24:17.136Z,34.30
2019-03-24T08:26:58.101Z,35.30
2019-03-24T08:29:39.214Z,31.87
2019-03-24T08:32:19.935Z,32.73
2019-03-24T08:35:00.929Z,36.27
2019-03-24T08:37:41.890Z,25.97
2019-03-24T08:40:22.710Z,32.07
2019-03-24T08:43:03.733Z,29.30
2019-03-24T08:45:44.346Z,28.50
2019-03-24T08:48:24.999Z,28.93
2019-03-24T08:51:05.795Z,34.20
2019-03-24T08:53:46.551Z,28.57
2019-03-24T08:56:14.990Z,29.97
2019-03-24T08:59:02.742Z,22.03
2019-03-24T09:01:50.537Z,31.17
2019-03-24T09:04:38.300Z,31.60
2019-03-24T09:07:26.074Z,27.40
2019-03-24T09:10:13.927Z,30.30
2019-03-24T09:12:42.357Z,31.37
2019-03-24T09:15:30.146Z,25.07
2019-03-24T09:18:17.901Z,29.87
2019-03-24T09:21:05.671Z,20.70
2019-03-24T09:23:53.418Z,29.30
2019-03-24T09:26:41.213Z,24.13
2019-03-24T09:29:09.784Z,24.67
2019-03-24T09:31:57.558Z,26.17
2019-03-24T09:34:45.315Z,26.20
2019-03-24T09:37:33.084Z,28.73
2019-03-24T09:40:13.377Z,26.93
2019-03-24T09:42:54.491Z,24.57
2019-03-24T09:45:35.375Z,24.43
2019-03-24T09:48:16.365Z,19.47
2019-03-24T09:50:57.299Z,24.27
2019-03-24T09:53:37.886Z,21.57
2019-03-24T09:56:06.387Z,32.60
2019-03-24T09:58:47.279Z,19.43
2019-03-24T10:01:28.227Z,25.93
2019-03-24T10:03:56.642Z,25.97
2019-03-24T10:06:44.440Z,32.03
2019-03-24T10:09:32.194Z,30.50
2019-03-24T10:12:19.971Z,27.67
2019-03-24T10:15:07.991Z,26.13
2019-03-24T10:17:36.492Z,30.30
2019-03-24T10:20:24.522Z,24.60
2019-03-24T10:23:12.281Z,20.07
2019-03-24T10:26:00.061Z,29.20
2019-03-24T10:28:47.840Z,19.87
2019-03-24T10:31:35.615Z,19.73
2019-03-24T10:34:42.568Z,25.90
2019-03-24T10:37:30.342Z,17.57
2019-03-24T10:40:28.098Z,20.50
2019-03-24T10:43:07.706Z,16.30
2019-03-24T10:45:55.780Z,24.60
2019-03-24T10:48:43.634Z,20.03
2019-03-24T10:51:31.396Z,16.57
2019-03-24T10:54:19.183Z,14.97
2019-03-24T10:57:06.970Z,19.90
2019-03-24T10:59:55.064Z,19.60
2019-03-24T11:02:42.850Z,16.17
2019-03-24T11:05:23.047Z,13.30
2019-03-24T11:08:03.657Z,16.80
2019-03-24T11:10:44.591Z,13.50
2019-03-24T11:13:25.175Z,22.23
2019-03-24T11:16:05.838Z,14.83
2019-03-24T11:18:46.287Z,17.47
2019-03-24T11:21:26.999Z,17.23
2019-03-24T11:24:07.903Z,18.63
2019-03-24T11:26:48.822Z,22.43
2019-03-24T11:29:29.375Z,13.17
2019-03-24T11:32:10.279Z,19.43
2019-03-24T11:34:50.898Z,25.80
2019-03-24T11:37:31.615Z,23.23
2019-03-24T11:40:12.439Z,16.27
2019-03-24T11:42:53.106Z,12.43
2019-03-24T11:45:33.791Z,10.43
2019-03-24T11:48:14.534Z,10.43
2019-03-24T11:50:55.228Z,12.60
2019-03-24T11:53:35.979Z,12.87
2019-03-24T11:56:16.762Z,11.07
2019-03-24T11:58:57.529Z,24.33
2019-03-24T12:01:38.596Z,12.83
2019-03-24T12:04:19.837Z,13.97
2019-03-24T12:07:00.287Z,14.27
2019-03-24T12:09:41.191Z,13.97
2019-03-24T12:12:09.623Z,14.07
2019-03-24T12:14:57.422Z,12.97
2019-03-24T12:17:45.177Z,13.30
2019-03-24T12:20:32.976Z,9.70
2019-03-24T12:23:21.073Z,13.50
2019-03-24T12:26:10.262Z,10.83
2019-03-24T12:28:58.035Z,15.27
2019-03-24T12:31:45.825Z,18.67
2019-03-24T12:34:33.599Z,13.60
2019-03-24T12:37:21.373Z,10.30
2019-03-24T12:40:09.813Z,14.53
2019-03-24T12:42:57.592Z,10.80
2019-03-24T12:47:52.936Z,18.70
2019-03-24T12:50:33.568Z,13.00
2019-03-24T12:53:14.226Z,10.07
2019-03-24T12:55:55.073Z,8.20
2019-03-24T12:58:35.923Z,8.67
2019-03-24T13:01:17.079Z,10.80
2019-03-24T13:03:57.616Z,11.17
2019-03-24T13:06:38.483Z,12.80
2019-03-24T13:09:19.373Z,10.80
2019-03-24T13:11:59.719Z,8.23
2019-03-24T13:14:40.385Z,10.90
2019-03-24T13:17:20.899Z,6.60
2019-03-24T13:20:01.568Z,12.77
2019-03-24T13:22:42.266Z,8.93
2019-03-24T13:25:23.003Z,7.77
2019-03-24T13:28:03.559Z,10.27
2019-03-24T13:30:44.500Z,8.77
2019-03-24T13:33:25.236Z,9.23
2019-03-24T13:36:07.448Z,12.73
2019-03-24T13:38:48.728Z,11.80
2019-03-24T13:41:29.687Z,10.23
2019-03-24T13:44:10.441Z,12.23
2019-03-24T13:46:51.106Z,12.23
2019-03-24T13:49:32.031Z,9.93
2019-03-24T13:52:13.164Z,8.17
2019-03-24T13:54:54.043Z,10.43
2019-03-24T13:57:34.776Z,13.30
2019-03-24T14:00:16.690Z,10.13
2019-03-24T14:02:45.233Z,9.27
2019-03-24T14:05:32.986Z,9.87
2019-03-24T14:08:20.788Z,11.00
2019-03-24T14:10:49.203Z,6.30
2019-03-24T14:13:36.995Z,11.10
2019-03-24T14:16:24.751Z,11.27
2019-03-24T14:18:53.264Z,9.73
2019-03-24T14:21:41.018Z,9.03
2019-03-24T14:24:28.802Z,10.50
2019-03-24T14:27:16.575Z,11.83
2019-03-24T14:29:44.998Z,13.43
2019-03-24T14:32:32.786Z,14.17
2019-03-24T14:35:20.552Z,11.73
2019-03-24T14:38:08.351Z,12.00
2019-03-24T14:40:56.120Z,18.60
2019-03-24T14:43:36.453Z,10.07
2019-03-24T14:46:16.950Z,8.57
2019-03-24T14:48:57.959Z,9.97
2019-03-24T14:51:38.878Z,13.20
2019-03-24T14:54:19.454Z,11.13
2019-03-24T14:57:00.120Z,13.63
2019-03-24T14:59:41.643Z,16.23
2019-03-24T15:02:22.390Z,19.47
2019-03-24T15:05:03.025Z,18.47
2019-03-24T15:07:43.956Z,13.67
2019-03-24T15:10:24.451Z,14.57
2019-03-24T15:13:05.374Z,12.47
2019-03-24T15:15:46.119Z,15.27
2019-03-24T15:18:26.867Z,13.23
2019-03-24T15:21:07.647Z,9.77
2019-03-24T15:23:48.190Z,19.70
2019-03-24T15:26:29.031Z,15.17
2019-03-24T15:29:09.667Z,13.50
2019-03-24T15:31:50.306Z,10.13
2019-03-24T15:34:31.004Z,12.97
2019-03-24T15:37:11.690Z,9.57
2019-03-24T15:39:52.647Z,14.20
2019-03-24T15:42:21.108Z,13.93
2019-03-24T15:45:08.876Z,13.57
2019-03-24T15:47:37.315Z,13.57
2019-03-24T15:50:25.070Z,16.37
2019-03-24T15:53:12.855Z,13.73
2019-03-24T15:56:00.627Z,20.07
2019-03-24T15:58:48.493Z,20.07
2019-03-24T16:01:36.239Z,17.33
2019-03-24T16:04:24.027Z,17.73
2019-03-24T16:07:11.820Z,12.47
2019-03-24T16:09:59.595Z,16.90
2019-03-24T16:12:47.386Z,16.37
2019-03-24T16:15:35.166Z,20.33
2019-03-24T16:18:22.957Z,20.33
2019-03-24T16:21:10.739Z,15.93
2019-03-24T16:23:58.776Z,15.37
2019-03-24T16:26:46.585Z,17.73
2019-03-24T16:29:15.042Z,19.30
2019-03-24T16:32:02.901Z,13.67
2019-03-24T16:34:50.764Z,14.30
2019-03-24T16:37:38.536Z,18.43
2019-03-24T16:40:26.312Z,18.57
2019-03-24T16:43:06.848Z,21.33
2019-03-24T16:45:47.524Z,19.93
2019-03-24T16:48:15.942Z,18.97
2019-03-24T16:50:44.398Z,15.87
2019-03-24T16:53:32.150Z,17.47
2019-03-24T16:56:19.952Z,20.80
2019-03-24T16:59:07.703Z,19.30
2019-03-24T17:01:55.488Z,20.17
2019-03-24T17:04:43.286Z,18.53
2019-03-24T17:07:31.091Z,23.10
2019-03-24T17:10:18.858Z,19.33
2019-03-24T17:13:06.623Z,16.23
2019-03-24T17:15:54.403Z,14.97
2019-03-24T17:18:42.175Z,20.53
2019-03-24T17:21:29.983Z,18.43
2019-03-24T17:24:17.770Z,22.80
2019-03-24T17:27:05.550Z,15.13
2019-03-24T17:29:53.335Z,17.90
2019-03-24T17:32:41.128Z,21.00
2019-03-24T17:35:28.897Z,19.23
2019-03-24T17:38:16.684Z,20.70
2019-03-24T17:41:04.560Z,21.63
2019-03-24T17:44:02.667Z,18.03
2019-03-24T17:46:41.855Z,21.73
2019-03-24T17:49:22.698Z,24.33
2019-03-24T17:52:00.394Z,18.40
2019-03-24T17:54:40.598Z,20.57
2019-03-24T17:57:28.386Z,15.43
2019-03-24T18:03:25.787Z,16.03
2019-03-24T18:06:13.544Z,19.77
2019-03-24T18:09:01.331Z,22.43
2019-03-24T18:11:49.099Z,19.97
2019-03-24T18:14:36.870Z,17.37
2019-03-24T18:17:05.295Z,21.37
2019-03-24T18:19:53.070Z,20.53
2019-03-24T18:22:21.517Z,22.77
2019-03-24T18:25:09.485Z,17.33
2019-03-24T18:27:57.305Z,22.80
2019-03-24T18:30:45.078Z,20.90
2019-03-24T18:33:32.835Z,16.67
2019-03-24T18:36:20.614Z,22.63
2019-03-24T18:39:08.563Z,22.53
2019-03-24T18:41:56.359Z,23.23
2019-03-24T18:44:44.110Z,23.50
2019-03-24T18:47:31.878Z,19.73
2019-03-24T18:50:12.480Z,22.30
2019-03-24T18:52:52.934Z,13.40
2019-03-24T18:55:34.571Z,18.73
2019-03-24T18:58:14.715Z,24.13
2019-03-24T19:00:55.405Z,14.63
2019-03-24T19:03:36.328Z,20.30
2019-03-24T19:06:17.246Z,23.73
2019-03-24T19:08:58.103Z,19.87
2019-03-24T19:11:38.880Z,18.77
2019-03-24T19:14:07.308Z,20.60
2019-03-24T19:16:55.085Z,18.57
2019-03-24T19:19:42.931Z,22.17
2019-03-24T19:22:11.666Z,20.80
2019-03-24T19:24:59.428Z,23.57
2019-03-24T19:27:47.195Z,19.93
2019-03-24T19:30:55.703Z,17.47
2019-03-24T19:33:43.496Z,19.57
2019-03-24T19:36:51.999Z,18.67
2019-03-24T19:39:39.769Z,10.00
2019-03-24T19:42:27.582Z,10.43
2019-03-24T19:45:15.358Z,18.23
2019-03-24T19:48:03.170Z,14.23
2019-03-24T19:50:44.098Z,13.83
2019-03-24T19:53:24.820Z,15.63
2019-03-24T19:55:53.260Z,15.50
2019-03-24T19:58:41.036Z,14.20
2019-03-24T20:01:09.462Z,13.30
2019-03-24T20:03:57.247Z,7.97
2019-03-24T20:06:45.018Z,12.87
2019-03-24T20:09:32.816Z,18.40
2019-03-24T20:12:20.567Z,15.90
2019-03-24T20:15:08.527Z,22.03
2019-03-24T20:17:56.286Z,15.00
2019-03-24T20:20:44.053Z,17.63
2019-03-24T20:23:31.829Z,14.13
2019-03-24T20:26:19.599Z,16.03
2019-03-24T20:29:07.377Z,13.97
2019-03-24T20:31:55.239Z,15.87
2019-03-24T20:34:43.023Z,12.03
2019-03-24T20:37:11.446Z,16.97
2019-03-24T20:39:59.223Z,13.73
2019-03-24T20:42:47.069Z,13.30
2019-03-24T20:45:34.894Z,10.83
2019-03-24T20:48:22.668Z,11.03
2019-03-24T20:51:03.846Z,13.57
2019-03-24T20:53:44.499Z,9.57
2019-03-24T20:56:25.407Z,14.90
2019-03-24T20:59:06.267Z,12.53
2019-03-24T21:01:47.458Z,9.40
2019-03-24T21:04:28.291Z,14.57
2019-03-24T21:07:09.286Z,11.50
2019-03-24T21:09:50.011Z,13.70
2019-03-24T21:12:30.755Z,12.23
2019-03-24T21:15:11.771Z,14.40
2019-03-24T21:17:52.071Z,11.67
2019-03-24T21:20:20.577Z,12.37
2019-03-24T21:23:08.403Z,15.67
2019-03-24T21:25:56.170Z,17.50
2019-03-24T21:28:43.956Z,10.80
2019-03-24T21:31:31.726Z,15.53
2019-03-24T21:34:19.499Z,12.73
2019-03-24T21:37:07.663Z,16.40
2019-03-24T21:39:36.065Z,16.30
2019-03-24T21:42:23.839Z,15.20
2019-03-24T21:45:04.831Z,10.97
2019-03-24T21:47:45.623Z,14.43
2019-03-24T21:50:26.191Z,13.43
2019-03-24T21:52:54.646Z,12.03
2019-03-24T21:55:42.416Z,12.80
2019-03-24T21:58:30.182Z,12.70
2019-03-24T22:01:18.275Z,15.43
2019-03-24T22:04:06.034Z,11.07
2019-03-24T22:06:53.929Z,16.37
2019-03-24T22:09:41.676Z,15.13
2019-03-24T22:12:29.438Z,13.27
2019-03-24T22:15:17.267Z,17.97
2019-03-24T22:18:05.139Z,14.63
2019-03-24T22:20:52.919Z,17.17
2019-03-24T22:23:51.601Z,12.77
2019-03-24T22:26:30.180Z,10.90
2019-03-24T22:29:18.265Z,13.37
2019-03-24T22:32:06.007Z,17.00
2019-03-24T22:34:53.795Z,11.70
2019-03-24T22:37:41.571Z,16.17
2019-03-24T22:40:29.327Z,12.27
2019-03-24T22:43:17.105Z,12.33
2019-03-24T22:45:45.514Z,15.37
2019-03-24T22:48:26.654Z,16.73
2019-03-24T22:51:07.523Z,15.03
2019-03-24T22:53:48.427Z,17.33
2019-03-24T22:56:29.357Z,15.07
2019-03-24T22:59:10.124Z,14.23
2019-03-24T23:01:38.562Z,16.53
2019-03-24T23:04:26.342Z,13.63
2019-03-24T23:07:14.131Z,14.07
2019-03-24T23:10:01.899Z,13.80
2019-03-24T23:12:49.664Z,13.93
2019-03-24T23:15:30.131Z,14.07
2019-03-24T23:18:10.603Z,15.97
2019-03-24T23:20:51.660Z,10.63
2019-03-24T23:23:32.134Z,14.70
2019-03-24T23:26:12.951Z,10.93
2019-03-24T23:28:53.695Z,16.00
2019-03-24T23:31:34.368Z,13.00
2019-03-24T23:34:14.891Z,15.10
2019-03-24T23:36:55.943Z,11.37
2019-03-24T23:39:36.584Z,13.80
2019-03-24T23:42:17.099Z,13.97
2019-03-24T23:44:57.304Z,12.23
2019-03-24T23:47:25.742Z,15.73
2019-03-24T23:50:06.633Z,13.43
2019-03-24T23:52:47.616Z,16.13
2019-03-24T23:55:28.145Z,12.83
2019-03-24T23:58:09.083Z,19.13
